sensor_id;sensor_type;location;lat;lon;timestamp;pressure;altitude;pressure_sealevel;temperature;humidity
18821;BME280;9539;59.332;18.034;2023-02-28T00:01:15;102221.31;;;10.39;62.95
18821;BME280;9539;59.332;18.034;2023-02-28T00:03:37;102223.09;;;9.89;64.62
18821;BME280;9539;59.332;18.034;2023-02-28T00:05:59;102226.56;;;10.40;63.51
18821;BME280;9539;59.332;18.034;2023-02-28T00:08:22;102225.44;;;9.98;66.19
18821;BME280;9539;59.332;18.034;2023-02-28T00:10:44;102211.06;;;10.30;64.43
18821;BME280;9539;59.332;18.034;2023-02-28T00:13:07;102223.91;;;10.17;64.13
18821;BME280;9539;59.332;18.034;2023-02-28T00:15:29;102225.75;;;10.14;64.54
18821;BME280;9539;59.332;18.034;2023-02-28T00:17:52;102224.19;;;10.33;63.21
18821;BME280;9539;59.332;18.034;2023-02-28T00:20:14;102229.72;;;10.27;63.66
18821;BME280;9539;59.332;18.034;2023-02-28T00:22:38;102236.16;;;10.20;63.38
18821;BME280;9539;59.332;18.034;2023-02-28T00:25:02;102231.25;;;10.34;63.11
18821;BME280;9539;59.332;18.034;2023-02-28T00:27:25;102236.28;;;10.17;63.06
18821;BME280;9539;59.332;18.034;2023-02-28T00:29:47;102239.16;;;10.35;62.64
18821;BME280;9539;59.332;18.034;2023-02-28T00:32:09;102234.31;;;10.47;62.38
18821;BME280;9539;59.332;18.034;2023-02-28T00:34:31;102226.97;;;10.30;62.45
18821;BME280;9539;59.332;18.034;2023-02-28T00:36:58;102229.44;;;10.34;62.50
18821;BME280;9539;59.332;18.034;2023-02-28T00:39:20;102234.56;;;10.14;63.83
18821;BME280;9539;59.332;18.034;2023-02-28T00:41:43;102230.50;;;10.04;64.71
18821;BME280;9539;59.332;18.034;2023-02-28T00:44:05;102228.63;;;10.32;61.82
18821;BME280;9539;59.332;18.034;2023-02-28T00:46:27;102228.66;;;10.06;64.28
18821;BME280;9539;59.332;18.034;2023-02-28T00:48:49;102232.66;;;9.93;64.15
18821;BME280;9539;59.332;18.034;2023-02-28T00:51:11;102231.88;;;10.16;63.79
18821;BME280;9539;59.332;18.034;2023-02-28T00:53:33;102223.00;;;10.41;61.86
18821;BME280;9539;59.332;18.034;2023-02-28T00:55:55;102225.44;;;9.98;63.93
18821;BME280;9539;59.332;18.034;2023-02-28T00:58:19;102214.63;;;10.29;62.37
18821;BME280;9539;59.332;18.034;2023-02-28T01:00:41;102222.22;;;10.13;62.76
18821;BME280;9539;59.332;18.034;2023-02-28T01:03:03;102212.19;;;10.23;63.86
18821;BME280;9539;59.332;18.034;2023-02-28T01:05:25;102211.38;;;9.94;64.71
18821;BME280;9539;59.332;18.034;2023-02-28T01:07:47;102215.59;;;9.75;65.56
18821;BME280;9539;59.332;18.034;2023-02-28T01:10:10;102201.00;;;10.13;64.06
18821;BME280;9539;59.332;18.034;2023-02-28T01:12:32;102208.88;;;9.91;64.71
18821;BME280;9539;59.332;18.034;2023-02-28T01:14:56;102207.53;;;10.53;61.93
18821;BME280;9539;59.332;18.034;2023-02-28T01:17:18;102216.47;;;10.50;61.69
18821;BME280;9539;59.332;18.034;2023-02-28T01:19:40;102223.78;;;10.20;62.85
18821;BME280;9539;59.332;18.034;2023-02-28T01:22:03;102225.00;;;10.10;64.53
18821;BME280;9539;59.332;18.034;2023-02-28T01:24:26;102213.97;;;10.22;63.64
18821;BME280;9539;59.332;18.034;2023-02-28T01:26:48;102220.38;;;10.17;63.59
18821;BME280;9539;59.332;18.034;2023-02-28T01:29:10;102223.03;;;10.15;62.71
18821;BME280;9539;59.332;18.034;2023-02-28T01:31:34;102218.13;;;10.05;64.60
18821;BME280;9539;59.332;18.034;2023-02-28T01:33:56;102218.03;;;9.81;65.23
18821;BME280;9539;59.332;18.034;2023-02-28T01:36:20;102213.31;;;9.91;64.86
18821;BME280;9539;59.332;18.034;2023-02-28T01:38:42;102222.47;;;9.54;66.33
18821;BME280;9539;59.332;18.034;2023-02-28T01:41:05;102221.56;;;9.82;65.80
18821;BME280;9539;59.332;18.034;2023-02-28T01:43:29;102225.69;;;9.64;67.55
18821;BME280;9539;59.332;18.034;2023-02-28T01:45:52;102226.16;;;9.50;67.77
18821;BME280;9539;59.332;18.034;2023-02-28T01:48:16;102231.75;;;9.68;67.96
18821;BME280;9539;59.332;18.034;2023-02-28T01:50:41;102231.81;;;9.40;67.13
18821;BME280;9539;59.332;18.034;2023-02-28T01:53:07;102231.22;;;9.30;68.26
18821;BME280;9539;59.332;18.034;2023-02-28T01:55:32;102235.75;;;10.06;65.75
18821;BME280;9539;59.332;18.034;2023-02-28T01:57:56;102222.72;;;10.49;62.37
18821;BME280;9539;59.332;18.034;2023-02-28T02:00:22;102226.94;;;9.79;65.55
18821;BME280;9539;59.332;18.034;2023-02-28T02:02:47;102222.03;;;9.93;65.47
18821;BME280;9539;59.332;18.034;2023-02-28T02:05:14;102228.59;;;10.08;64.29
18821;BME280;9539;59.332;18.034;2023-02-28T02:07:38;102227.03;;;10.02;65.05
18821;BME280;9539;59.332;18.034;2023-02-28T02:10:05;102217.13;;;9.82;65.66
18821;BME280;9539;59.332;18.034;2023-02-28T02:12:39;102229.06;;;9.69;66.43
18821;BME280;9539;59.332;18.034;2023-02-28T02:15:10;102220.31;;;9.92;66.25
18821;BME280;9539;59.332;18.034;2023-02-28T02:17:38;102224.34;;;9.25;70.31
18821;BME280;9539;59.332;18.034;2023-02-28T02:20:31;102213.63;;;9.55;68.16
18821;BME280;9539;59.332;18.034;2023-02-28T02:23:31;102218.53;;;9.13;72.31
18821;BME280;9539;59.332;18.034;2023-02-28T02:25:56;102217.00;;;8.77;73.84
18821;BME280;9539;59.332;18.034;2023-02-28T02:34:47;102227.53;;;9.62;69.10
18821;BME280;9539;59.332;18.034;2023-02-28T02:37:25;102219.63;;;9.60;68.86
18821;BME280;9539;59.332;18.034;2023-02-28T02:39:54;102225.56;;;9.41;68.37
18821;BME280;9539;59.332;18.034;2023-02-28T02:42:23;102222.19;;;9.63;68.48
18821;BME280;9539;59.332;18.034;2023-02-28T02:44:50;102225.44;;;9.17;71.27
18821;BME280;9539;59.332;18.034;2023-02-28T02:47:16;102217.00;;;8.48;78.00
18821;BME280;9539;59.332;18.034;2023-02-28T02:49:42;102220.19;;;9.16;73.16
18821;BME280;9539;59.332;18.034;2023-02-28T02:52:10;102222.13;;;9.65;69.24
18821;BME280;9539;59.332;18.034;2023-02-28T02:54:36;102219.78;;;9.56;70.04
18821;BME280;9539;59.332;18.034;2023-02-28T02:57:03;102221.28;;;9.65;68.17
18821;BME280;9539;59.332;18.034;2023-02-28T02:59:26;102218.00;;;9.56;68.28
18821;BME280;9539;59.332;18.034;2023-02-28T03:01:51;102220.94;;;9.74;67.66
18821;BME280;9539;59.332;18.034;2023-02-28T03:04:17;102226.16;;;9.77;67.02
18821;BME280;9539;59.332;18.034;2023-02-28T03:06:40;102216.47;;;9.49;68.40
18821;BME280;9539;59.332;18.034;2023-02-28T03:09:03;102217.97;;;9.58;67.59
18821;BME280;9539;59.332;18.034;2023-02-28T03:11:26;102219.94;;;9.51;69.22
18821;BME280;9539;59.332;18.034;2023-02-28T03:14:21;102216.25;;;9.82;66.92
18821;BME280;9539;59.332;18.034;2023-02-28T03:19:55;102214.94;;;9.14;71.30
18821;BME280;9539;59.332;18.034;2023-02-28T03:22:56;102210.72;;;9.09;72.04
18821;BME280;9539;59.332;18.034;2023-02-28T03:25:29;102210.31;;;9.49;69.83
18821;BME280;9539;59.332;18.034;2023-02-28T03:28:00;102206.78;;;9.48;68.67
18821;BME280;9539;59.332;18.034;2023-02-28T03:30:25;102224.50;;;9.46;70.00
18821;BME280;9539;59.332;18.034;2023-02-28T03:32:54;102218.63;;;9.65;67.95
18821;BME280;9539;59.332;18.034;2023-02-28T03:35:20;102210.28;;;9.22;71.15
18821;BME280;9539;59.332;18.034;2023-02-28T03:37:44;102204.69;;;9.04;73.72
18821;BME280;9539;59.332;18.034;2023-02-28T03:40:11;102218.03;;;9.01;73.15
18821;BME280;9539;59.332;18.034;2023-02-28T03:42:38;102225.84;;;9.33;71.67
18821;BME280;9539;59.332;18.034;2023-02-28T03:45:04;102209.91;;;9.07;70.88
18821;BME280;9539;59.332;18.034;2023-02-28T03:47:32;102222.72;;;9.47;69.75
18821;BME280;9539;59.332;18.034;2023-02-28T03:49:59;102225.84;;;9.33;70.15
18821;BME280;9539;59.332;18.034;2023-02-28T03:52:27;102217.53;;;9.16;71.18
18821;BME280;9539;59.332;18.034;2023-02-28T03:54:53;102211.72;;;9.05;70.26
18821;BME280;9539;59.332;18.034;2023-02-28T03:57:32;102221.94;;;9.17;72.06
18821;BME280;9539;59.332;18.034;2023-02-28T04:00:00;102212.78;;;8.40;77.31
18821;BME280;9539;59.332;18.034;2023-02-28T04:02:24;102207.91;;;8.86;75.24
18821;BME280;9539;59.332;18.034;2023-02-28T04:04:47;102204.91;;;8.68;77.50
18821;BME280;9539;59.332;18.034;2023-02-28T04:07:09;102204.94;;;8.96;74.18
18821;BME280;9539;59.332;18.034;2023-02-28T04:09:32;102205.06;;;8.92;74.04
18821;BME280;9539;59.332;18.034;2023-02-28T04:11:55;102195.00;;;9.03;72.97
18821;BME280;9539;59.332;18.034;2023-02-28T04:14:17;102204.34;;;8.87;72.56
18821;BME280;9539;59.332;18.034;2023-02-28T04:16:41;102195.09;;;8.72;76.78
18821;BME280;9539;59.332;18.034;2023-02-28T04:19:05;102190.97;;;8.91;74.26
18821;BME280;9539;59.332;18.034;2023-02-28T04:21:27;102189.63;;;8.49;78.17
18821;BME280;9539;59.332;18.034;2023-02-28T04:23:49;102194.38;;;8.95;75.63
18821;BME280;9539;59.332;18.034;2023-02-28T04:26:11;102206.44;;;8.75;76.43
18821;BME280;9539;59.332;18.034;2023-02-28T04:28:33;102201.72;;;8.87;76.04
18821;BME280;9539;59.332;18.034;2023-02-28T04:30:56;102202.78;;;8.81;74.59
18821;BME280;9539;59.332;18.034;2023-02-28T04:33:19;102199.00;;;8.59;77.35
18821;BME280;9539;59.332;18.034;2023-02-28T04:35:41;102192.72;;;8.32;81.19
18821;BME280;9539;59.332;18.034;2023-02-28T04:38:03;102186.53;;;8.00;82.55
18821;BME280;9539;59.332;18.034;2023-02-28T04:40:25;102188.50;;;8.85;77.62
18821;BME280;9539;59.332;18.034;2023-02-28T04:42:47;102190.16;;;8.89;75.33
18821;BME280;9539;59.332;18.034;2023-02-28T04:45:10;102185.59;;;8.94;74.56
18821;BME280;9539;59.332;18.034;2023-02-28T04:47:32;102190.28;;;8.24;79.19
18821;BME280;9539;59.332;18.034;2023-02-28T04:49:55;102195.91;;;9.02;75.05
18821;BME280;9539;59.332;18.034;2023-02-28T04:52:17;102200.09;;;8.52;77.56
18821;BME280;9539;59.332;18.034;2023-02-28T04:54:40;102202.88;;;9.06;74.55
18821;BME280;9539;59.332;18.034;2023-02-28T04:57:02;102213.22;;;8.86;75.74
18821;BME280;9539;59.332;18.034;2023-02-28T04:59:25;102211.31;;;8.89;75.95
18821;BME280;9539;59.332;18.034;2023-02-28T05:01:48;102217.28;;;8.68;77.15
18821;BME280;9539;59.332;18.034;2023-02-28T05:04:10;102215.78;;;8.58;76.80
18821;BME280;9539;59.332;18.034;2023-02-28T05:06:33;102204.34;;;8.57;77.65
18821;BME280;9539;59.332;18.034;2023-02-28T05:08:56;102213.47;;;8.76;77.20
18821;BME280;9539;59.332;18.034;2023-02-28T05:11:20;102215.97;;;8.52;78.71
18821;BME280;9539;59.332;18.034;2023-02-28T05:13:42;102209.81;;;8.51;77.35
18821;BME280;9539;59.332;18.034;2023-02-28T05:16:05;102218.47;;;8.56;78.48
18821;BME280;9539;59.332;18.034;2023-02-28T05:18:27;102223.22;;;8.45;79.41
18821;BME280;9539;59.332;18.034;2023-02-28T05:20:49;102225.28;;;8.35;80.23
18821;BME280;9539;59.332;18.034;2023-02-28T05:23:13;102225.25;;;8.66;78.63
18821;BME280;9539;59.332;18.034;2023-02-28T05:25:36;102225.22;;;8.68;77.22
18821;BME280;9539;59.332;18.034;2023-02-28T05:27:57;102226.94;;;8.69;76.26
18821;BME280;9539;59.332;18.034;2023-02-28T05:30:20;102212.06;;;8.65;76.02
18821;BME280;9539;59.332;18.034;2023-02-28T05:32:42;102219.13;;;8.35;79.86
18821;BME280;9539;59.332;18.034;2023-02-28T05:35:04;102228.81;;;8.65;77.50
18821;BME280;9539;59.332;18.034;2023-02-28T05:37:26;102216.84;;;8.52;77.46
18821;BME280;9539;59.332;18.034;2023-02-28T05:39:51;102230.25;;;9.05;75.03
18821;BME280;9539;59.332;18.034;2023-02-28T05:42:13;102228.38;;;8.50;77.48
18821;BME280;9539;59.332;18.034;2023-02-28T05:44:35;102227.38;;;8.83;76.97
18821;BME280;9539;59.332;18.034;2023-02-28T05:46:58;102235.16;;;8.89;76.33
18821;BME280;9539;59.332;18.034;2023-02-28T05:49:20;102232.69;;;8.83;75.47
18821;BME280;9539;59.332;18.034;2023-02-28T05:51:42;102229.03;;;8.58;77.26
18821;BME280;9539;59.332;18.034;2023-02-28T05:54:04;102226.25;;;8.31;79.21
18821;BME280;9539;59.332;18.034;2023-02-28T05:56:28;102236.50;;;8.74;77.57
18821;BME280;9539;59.332;18.034;2023-02-28T05:58:50;102226.94;;;8.38;79.17
18821;BME280;9539;59.332;18.034;2023-02-28T06:01:33;102235.84;;;8.66;76.85
18821;BME280;9539;59.332;18.034;2023-02-28T06:03:56;102232.28;;;8.36;78.64
18821;BME280;9539;59.332;18.034;2023-02-28T06:06:19;102239.53;;;8.28;80.49
18821;BME280;9539;59.332;18.034;2023-02-28T06:08:41;102246.13;;;8.75;75.07
18821;BME280;9539;59.332;18.034;2023-02-28T06:11:05;102250.53;;;9.06;74.73
18821;BME280;9539;59.332;18.034;2023-02-28T06:13:28;102245.63;;;8.94;75.45
18821;BME280;9539;59.332;18.034;2023-02-28T06:15:50;102251.13;;;9.43;72.24
18821;BME280;9539;59.332;18.034;2023-02-28T06:18:12;102252.22;;;9.36;71.85
18821;BME280;9539;59.332;18.034;2023-02-28T06:20:34;102253.66;;;9.73;69.10
18821;BME280;9539;59.332;18.034;2023-02-28T06:22:56;102251.41;;;9.34;71.59
18821;BME280;9539;59.332;18.034;2023-02-28T06:25:20;102254.66;;;9.42;72.81
18821;BME280;9539;59.332;18.034;2023-02-28T06:27:42;102256.03;;;10.33;67.33
18821;BME280;9539;59.332;18.034;2023-02-28T06:30:08;102257.03;;;10.30;67.23
18821;BME280;9539;59.332;18.034;2023-02-28T06:32:30;102251.75;;;10.54;63.95
18821;BME280;9539;59.332;18.034;2023-02-28T06:34:53;102258.63;;;10.34;65.22
18821;BME280;9539;59.332;18.034;2023-02-28T06:37:14;102246.41;;;10.30;64.42
18821;BME280;9539;59.332;18.034;2023-02-28T06:39:37;102236.81;;;10.00;66.28
18821;BME280;9539;59.332;18.034;2023-02-28T06:41:59;102242.88;;;10.55;64.93
18821;BME280;9539;59.332;18.034;2023-02-28T06:44:22;102244.97;;;10.45;64.75
18821;BME280;9539;59.332;18.034;2023-02-28T06:46:46;102256.94;;;9.81;68.17
18821;BME280;9539;59.332;18.034;2023-02-28T06:49:08;102250.84;;;10.30;66.81
18821;BME280;9539;59.332;18.034;2023-02-28T06:51:30;102251.06;;;10.49;64.98
18821;BME280;9539;59.332;18.034;2023-02-28T06:53:52;102261.56;;;10.75;64.15
18821;BME280;9539;59.332;18.034;2023-02-28T06:56:16;102253.88;;;11.14;61.03
18821;BME280;9539;59.332;18.034;2023-02-28T06:58:38;102260.59;;;11.22;61.06
18821;BME280;9539;59.332;18.034;2023-02-28T07:01:01;102256.97;;;11.25;59.40
18821;BME280;9539;59.332;18.034;2023-02-28T07:03:24;102253.94;;;11.56;59.18
18821;BME280;9539;59.332;18.034;2023-02-28T07:05:47;102255.16;;;11.69;57.38
18821;BME280;9539;59.332;18.034;2023-02-28T07:08:09;102255.97;;;12.13;55.24
18821;BME280;9539;59.332;18.034;2023-02-28T07:10:31;102260.69;;;12.47;53.99
18821;BME280;9539;59.332;18.034;2023-02-28T07:12:53;102267.00;;;12.83;53.07
18821;BME280;9539;59.332;18.034;2023-02-28T07:15:15;102264.28;;;13.04;50.47
18821;BME280;9539;59.332;18.034;2023-02-28T07:17:37;102261.06;;;13.35;50.81
18821;BME280;9539;59.332;18.034;2023-02-28T07:20:01;102265.13;;;13.60;48.49
18821;BME280;9539;59.332;18.034;2023-02-28T07:22:25;102270.34;;;14.15;49.52
18821;BME280;9539;59.332;18.034;2023-02-28T07:24:47;102261.72;;;14.10;47.91
18821;BME280;9539;59.332;18.034;2023-02-28T07:27:09;102257.78;;;15.00;47.11
18821;BME280;9539;59.332;18.034;2023-02-28T07:29:31;102256.69;;;15.36;44.73
18821;BME280;9539;59.332;18.034;2023-02-28T07:31:53;102259.75;;;13.96;46.79
18821;BME280;9539;59.332;18.034;2023-02-28T07:34:15;102256.81;;;14.86;46.00
18821;BME280;9539;59.332;18.034;2023-02-28T07:36:38;102257.19;;;15.27;45.49
18821;BME280;9539;59.332;18.034;2023-02-28T07:39:00;102255.47;;;15.41;45.03
18821;BME280;9539;59.332;18.034;2023-02-28T07:41:23;102249.25;;;15.72;42.98
18821;BME280;9539;59.332;18.034;2023-02-28T07:43:47;102246.81;;;15.52;43.30
18821;BME280;9539;59.332;18.034;2023-02-28T07:46:11;102253.66;;;15.26;43.72
18821;BME280;9539;59.332;18.034;2023-02-28T07:48:35;102247.19;;;14.50;45.78
18821;BME280;9539;59.332;18.034;2023-02-28T07:50:57;102238.69;;;14.42;44.57
18821;BME280;9539;59.332;18.034;2023-02-28T07:53:21;102241.66;;;15.02;43.99
18821;BME280;9539;59.332;18.034;2023-02-28T07:55:43;102240.94;;;16.21;42.11
18821;BME280;9539;59.332;18.034;2023-02-28T07:58:05;102246.31;;;16.21;42.44
18821;BME280;9539;59.332;18.034;2023-02-28T08:00:27;102246.50;;;16.18;42.55
18821;BME280;9539;59.332;18.034;2023-02-28T08:02:51;102241.19;;;17.03;41.40
18821;BME280;9539;59.332;18.034;2023-02-28T08:05:13;102243.59;;;16.93;40.09
18821;BME280;9539;59.332;18.034;2023-02-28T08:07:35;102235.72;;;16.48;39.90
18821;BME280;9539;59.332;18.034;2023-02-28T08:09:58;102235.28;;;16.98;39.41
18821;BME280;9539;59.332;18.034;2023-02-28T08:12:20;102229.19;;;17.76;39.54
18821;BME280;9539;59.332;18.034;2023-02-28T08:14:42;102226.06;;;18.47;37.52
18821;BME280;9539;59.332;18.034;2023-02-28T08:17:05;102228.69;;;17.96;36.78
18821;BME280;9539;59.332;18.034;2023-02-28T08:19:30;102224.72;;;17.36;38.01
18821;BME280;9539;59.332;18.034;2023-02-28T08:21:52;102225.38;;;16.98;39.35
18821;BME280;9539;59.332;18.034;2023-02-28T08:24:14;102229.19;;;17.23;38.66
18821;BME280;9539;59.332;18.034;2023-02-28T08:26:37;102229.19;;;17.49;37.71
18821;BME280;9539;59.332;18.034;2023-02-28T08:29:00;102228.19;;;17.50;37.71
18821;BME280;9539;59.332;18.034;2023-02-28T08:31:22;102234.25;;;17.27;38.48
18821;BME280;9539;59.332;18.034;2023-02-28T08:33:44;102224.63;;;16.96;39.03
18821;BME280;9539;59.332;18.034;2023-02-28T08:36:08;102231.81;;;17.64;36.71
18821;BME280;9539;59.332;18.034;2023-02-28T08:38:31;102234.50;;;18.03;36.67
18821;BME280;9539;59.332;18.034;2023-02-28T08:40:58;102233.28;;;17.28;37.91
18821;BME280;9539;59.332;18.034;2023-02-28T08:43:21;102222.06;;;17.36;38.13
18821;BME280;9539;59.332;18.034;2023-02-28T08:45:43;102219.81;;;17.42;38.21
18821;BME280;9539;59.332;18.034;2023-02-28T08:48:05;102222.91;;;17.63;36.74
18821;BME280;9539;59.332;18.034;2023-02-28T08:50:27;102220.38;;;17.06;38.55
18821;BME280;9539;59.332;18.034;2023-02-28T08:52:50;102206.88;;;17.08;37.88
18821;BME280;9539;59.332;18.034;2023-02-28T08:55:12;102211.66;;;17.44;37.58
18821;BME280;9539;59.332;18.034;2023-02-28T08:57:34;102218.22;;;16.42;38.44
18821;BME280;9539;59.332;18.034;2023-02-28T08:59:57;102213.22;;;16.93;38.35
18821;BME280;9539;59.332;18.034;2023-02-28T09:02:19;102207.94;;;17.05;37.97
18821;BME280;9539;59.332;18.034;2023-02-28T09:04:41;102213.78;;;18.30;36.29
18821;BME280;9539;59.332;18.034;2023-02-28T09:07:05;102198.94;;;19.48;34.76
18821;BME280;9539;59.332;18.034;2023-02-28T09:09:27;102199.88;;;20.06;33.78
18821;BME280;9539;59.332;18.034;2023-02-28T09:11:49;102200.53;;;19.51;34.80
18821;BME280;9539;59.332;18.034;2023-02-28T09:14:11;102191.84;;;19.82;34.02
18821;BME280;9539;59.332;18.034;2023-02-28T09:16:35;102191.09;;;20.15;33.51
18821;BME280;9539;59.332;18.034;2023-02-28T09:18:57;102187.44;;;20.39;33.13
18821;BME280;9539;59.332;18.034;2023-02-28T09:21:19;102183.78;;;19.11;34.46
18821;BME280;9539;59.332;18.034;2023-02-28T09:23:42;102178.22;;;18.52;35.10
18821;BME280;9539;59.332;18.034;2023-02-28T09:26:04;102176.56;;;19.94;32.97
18821;BME280;9539;59.332;18.034;2023-02-28T09:28:26;102177.06;;;19.99;33.32
18821;BME280;9539;59.332;18.034;2023-02-28T09:30:50;102172.28;;;18.22;35.26
18821;BME280;9539;59.332;18.034;2023-02-28T09:33:17;102172.22;;;18.98;34.50
18821;BME280;9539;59.332;18.034;2023-02-28T09:35:41;102175.50;;;20.30;33.01
18821;BME280;9539;59.332;18.034;2023-02-28T09:38:03;102164.13;;;20.26;33.06
18821;BME280;9539;59.332;18.034;2023-02-28T09:40:27;102172.94;;;20.95;32.08
18821;BME280;9539;59.332;18.034;2023-02-28T09:42:52;102176.09;;;18.94;34.14
18821;BME280;9539;59.332;18.034;2023-02-28T09:45:22;102172.88;;;20.52;32.04
18821;BME280;9539;59.332;18.034;2023-02-28T09:47:46;102174.53;;;20.09;31.99
18821;BME280;9539;59.332;18.034;2023-02-28T09:50:18;102169.56;;;19.80;33.20
18821;BME280;9539;59.332;18.034;2023-02-28T09:52:42;102163.91;;;20.52;32.86
18821;BME280;9539;59.332;18.034;2023-02-28T09:55:18;102165.97;;;19.69;33.04
18821;BME280;9539;59.332;18.034;2023-02-28T09:57:42;102154.81;;;20.19;32.55
18821;BME280;9539;59.332;18.034;2023-02-28T10:00:10;102162.25;;;19.59;32.72
18821;BME280;9539;59.332;18.034;2023-02-28T10:02:57;102159.25;;;18.79;33.74
18821;BME280;9539;59.332;18.034;2023-02-28T10:05:27;102160.03;;;19.29;33.80
18821;BME280;9539;59.332;18.034;2023-02-28T10:08:11;102167.56;;;19.00;34.38
18821;BME280;9539;59.332;18.034;2023-02-28T10:10:39;102172.94;;;19.71;32.95
18821;BME280;9539;59.332;18.034;2023-02-28T10:13:05;102165.69;;;18.76;34.34
18821;BME280;9539;59.332;18.034;2023-02-28T10:15:31;102175.31;;;19.76;32.84
18821;BME280;9539;59.332;18.034;2023-02-28T10:17:55;102183.19;;;19.18;34.02
18821;BME280;9539;59.332;18.034;2023-02-28T10:20:20;102184.03;;;19.55;33.62
18821;BME280;9539;59.332;18.034;2023-02-28T10:22:58;102193.38;;;17.09;35.77
18821;BME280;9539;59.332;18.034;2023-02-28T10:25:23;102196.16;;;18.39;34.97
18821;BME280;9539;59.332;18.034;2023-02-28T10:27:49;102193.59;;;18.37;34.85
18821;BME280;9539;59.332;18.034;2023-02-28T10:30:13;102197.72;;;16.98;36.53
18821;BME280;9539;59.332;18.034;2023-02-28T10:32:36;102202.06;;;17.13;36.90
18821;BME280;9539;59.332;18.034;2023-02-28T10:35:06;102196.31;;;17.19;36.95
18821;BME280;9539;59.332;18.034;2023-02-28T10:37:29;102191.00;;;17.98;35.77
18821;BME280;9539;59.332;18.034;2023-02-28T10:39:53;102197.06;;;17.62;35.71
18821;BME280;9539;59.332;18.034;2023-02-28T10:42:22;102196.00;;;17.77;36.21
18821;BME280;9539;59.332;18.034;2023-02-28T10:44:49;102193.16;;;18.44;35.33
18821;BME280;9539;59.332;18.034;2023-02-28T10:47:14;102192.28;;;18.30;35.23
18821;BME280;9539;59.332;18.034;2023-02-28T10:49:47;102193.19;;;17.66;35.60
18821;BME280;9539;59.332;18.034;2023-02-28T10:52:09;102187.22;;;17.88;36.17
18821;BME280;9539;59.332;18.034;2023-02-28T10:54:33;102174.31;;;18.69;34.97
18821;BME280;9539;59.332;18.034;2023-02-28T10:57:12;102178.81;;;18.81;34.40
18821;BME280;9539;59.332;18.034;2023-02-28T10:59:36;102174.13;;;18.47;35.33
18821;BME280;9539;59.332;18.034;2023-02-28T11:01:59;102181.97;;;18.50;34.78
18821;BME280;9539;59.332;18.034;2023-02-28T11:04:33;102187.66;;;17.82;35.74
18821;BME280;9539;59.332;18.034;2023-02-28T11:06:57;102182.50;;;18.17;35.85
18821;BME280;9539;59.332;18.034;2023-02-28T11:09:23;102192.84;;;19.10;33.86
18821;BME280;9539;59.332;18.034;2023-02-28T11:11:47;102196.38;;;17.32;37.05
18821;BME280;9539;59.332;18.034;2023-02-28T11:14:19;102189.78;;;17.89;36.13
18821;BME280;9539;59.332;18.034;2023-02-28T11:16:42;102190.47;;;18.44;35.46
18821;BME280;9539;59.332;18.034;2023-02-28T11:19:06;102194.78;;;18.08;35.68
18821;BME280;9539;59.332;18.034;2023-02-28T11:21:38;102183.91;;;17.04;37.66
18821;BME280;9539;59.332;18.034;2023-02-28T11:24:03;102177.69;;;18.47;35.74
18821;BME280;9539;59.332;18.034;2023-02-28T11:26:37;102183.66;;;18.76;34.77
18821;BME280;9539;59.332;18.034;2023-02-28T11:29:09;102177.44;;;19.12;34.68
18821;BME280;9539;59.332;18.034;2023-02-28T11:31:34;102183.19;;;18.95;34.82
18821;BME280;9539;59.332;18.034;2023-02-28T11:33:56;102185.06;;;18.82;34.62
18821;BME280;9539;59.332;18.034;2023-02-28T11:36:20;102192.56;;;17.75;35.86
18821;BME280;9539;59.332;18.034;2023-02-28T11:38:47;102170.56;;;19.08;35.22
18821;BME280;9539;59.332;18.034;2023-02-28T11:44:10;102174.00;;;19.10;34.15
18821;BME280;9539;59.332;18.034;2023-02-28T11:46:42;102159.22;;;18.92;35.22
18821;BME280;9539;59.332;18.034;2023-02-28T11:49:16;102168.66;;;18.97;35.06
18821;BME280;9539;59.332;18.034;2023-02-28T11:51:47;102171.22;;;18.62;34.87
18821;BME280;9539;59.332;18.034;2023-02-28T11:54:32;102160.38;;;19.48;34.14
18821;BME280;9539;59.332;18.034;2023-02-28T11:57:00;102157.44;;;18.67;35.12
18821;BME280;9539;59.332;18.034;2023-02-28T11:59:49;102150.88;;;18.71;34.94
18821;BME280;9539;59.332;18.034;2023-02-28T12:02:27;102150.28;;;17.25;37.15
18821;BME280;9539;59.332;18.034;2023-02-28T12:04:58;102151.13;;;18.05;36.04
18821;BME280;9539;59.332;18.034;2023-02-28T12:07:30;102144.47;;;18.10;35.91
18821;BME280;9539;59.332;18.034;2023-02-28T12:10:04;102150.28;;;17.52;37.18
18821;BME280;9539;59.332;18.034;2023-02-28T12:12:41;102148.50;;;17.65;37.14
18821;BME280;9539;59.332;18.034;2023-02-28T12:15:32;102135.38;;;16.94;37.79
18821;BME280;9539;59.332;18.034;2023-02-28T12:18:20;102142.75;;;17.57;37.02
18821;BME280;9539;59.332;18.034;2023-02-28T12:20:49;102144.47;;;16.65;38.28
18821;BME280;9539;59.332;18.034;2023-02-28T12:23:25;102147.28;;;16.90;38.36
18821;BME280;9539;59.332;18.034;2023-02-28T12:25:58;102143.28;;;17.37;38.13
18821;BME280;9539;59.332;18.034;2023-02-28T12:28:26;102143.69;;;17.04;38.98
18821;BME280;9539;59.332;18.034;2023-02-28T12:30:56;102144.75;;;16.46;39.75
18821;BME280;9539;59.332;18.034;2023-02-28T12:33:25;102142.16;;;17.00;38.12
18821;BME280;9539;59.332;18.034;2023-02-28T12:35:52;102138.97;;;17.34;38.05
18821;BME280;9539;59.332;18.034;2023-02-28T12:38:19;102134.47;;;17.08;38.32
18821;BME280;9539;59.332;18.034;2023-02-28T12:40:44;102135.44;;;17.07;38.12
18821;BME280;9539;59.332;18.034;2023-02-28T12:43:09;102126.38;;;17.22;38.34
18821;BME280;9539;59.332;18.034;2023-02-28T12:45:40;102133.69;;;17.06;38.45
18821;BME280;9539;59.332;18.034;2023-02-28T12:48:07;102136.19;;;16.82;38.53
18821;BME280;9539;59.332;18.034;2023-02-28T12:50:32;102130.97;;;17.20;38.53
18821;BME280;9539;59.332;18.034;2023-02-28T12:53:00;102128.84;;;17.65;37.96
18821;BME280;9539;59.332;18.034;2023-02-28T12:55:29;102133.81;;;17.04;38.63